sensor_id;sensor_type;location;lat;lon;timestamp;temperature;humidity
73322;DHT22;61549;37.044;22.128;2023-04-01T00:01:17;17.50;53.60
73322;DHT22;61549;37.044;22.128;2023-04-01T00:03:43;17.50;53.10
73322;DHT22;61549;37.044;22.128;2023-04-01T00:06:12;17.60;53.20
73322;DHT22;61549;37.044;22.128;2023-04-01T00:08:39;17.60;53.00
73322;DHT22;61549;37.044;22.128;2023-04-01T00:11:05;17.70;52.70
73322;DHT22;61549;37.044;22.128;2023-04-01T00:13:31;17.70;52.70
73322;DHT22;61549;37.044;22.128;2023-04-01T00:15:57;17.80;52.60
73322;DHT22;61549;37.044;22.128;2023-04-01T00:18:25;17.80;52.50
73322;DHT22;61549;37.044;22.128;2023-04-01T00:20:52;17.80;52.40
73322;DHT22;61549;37.044;22.128;2023-04-01T00:23:19;17.80;51.90
73322;DHT22;61549;37.044;22.128;2023-04-01T00:25:45;17.90;51.80
73322;DHT22;61549;37.044;22.128;2023-04-01T00:28:17;17.80;52.10
73322;DHT22;61549;37.044;22.128;2023-04-01T00:30:43;17.90;52.30
73322;DHT22;61549;37.044;22.128;2023-04-01T00:33:09;17.90;52.40
73322;DHT22;61549;37.044;22.128;2023-04-01T00:35:35;17.90;52.60
73322;DHT22;61549;37.044;22.128;2023-04-01T00:38:01;17.80;52.00
73322;DHT22;61549;37.044;22.128;2023-04-01T00:40:42;17.80;51.90
73322;DHT22;61549;37.044;22.128;2023-04-01T00:43:15;17.80;52.10
73322;DHT22;61549;37.044;22.128;2023-04-01T00:45:45;17.80;52.60
73322;DHT22;61549;37.044;22.128;2023-04-01T00:48:17;17.80;52.80
73322;DHT22;61549;37.044;22.128;2023-04-01T00:51:06;17.80;53.00
73322;DHT22;61549;37.044;22.128;2023-04-01T00:53:35;17.80;52.90
73322;DHT22;61549;37.044;22.128;2023-04-01T00:56:30;17.80;53.00
73322;DHT22;61549;37.044;22.128;2023-04-01T00:59:14;17.80;53.00
73322;DHT22;61549;37.044;22.128;2023-04-01T01:01:41;17.80;53.00
73322;DHT22;61549;37.044;22.128;2023-04-01T01:04:21;17.70;53.20
73322;DHT22;61549;37.044;22.128;2023-04-01T01:12:46;17.70;53.40
73322;DHT22;61549;37.044;22.128;2023-04-01T01:15:59;17.70;53.40
73322;DHT22;61549;37.044;22.128;2023-04-01T01:18:39;17.70;54.00
73322;DHT22;61549;37.044;22.128;2023-04-01T01:24:30;17.70;54.50
73322;DHT22;61549;37.044;22.128;2023-04-01T01:27:17;17.60;53.80
73322;DHT22;61549;37.044;22.128;2023-04-01T01:35:55;17.60;54.30
73322;DHT22;61549;37.044;22.128;2023-04-01T01:38:27;17.50;54.40
73322;DHT22;61549;37.044;22.128;2023-04-01T01:40:56;17.60;54.50
73322;DHT22;61549;37.044;22.128;2023-04-01T01:43:42;17.60;54.40
73322;DHT22;61549;37.044;22.128;2023-04-01T01:46:18;17.60;54.00
73322;DHT22;61549;37.044;22.128;2023-04-01T01:52:23;17.60;53.60
73322;DHT22;61549;37.044;22.128;2023-04-01T01:54:55;17.60;53.70
73322;DHT22;61549;37.044;22.128;2023-04-01T01:57:34;17.60;53.80
73322;DHT22;61549;37.044;22.128;2023-04-01T02:00:07;17.60;53.80
73322;DHT22;61549;37.044;22.128;2023-04-01T02:02:44;17.60;53.80
73322;DHT22;61549;37.044;22.128;2023-04-01T02:05:14;17.50;53.60
73322;DHT22;61549;37.044;22.128;2023-04-01T02:07:46;17.50;53.90
73322;DHT22;61549;37.044;22.128;2023-04-01T02:10:14;17.40;53.90
73322;DHT22;61549;37.044;22.128;2023-04-01T02:12:42;17.50;53.90
73322;DHT22;61549;37.044;22.128;2023-04-01T02:15:12;17.50;53.80
73322;DHT22;61549;37.044;22.128;2023-04-01T02:17:43;17.50;53.90
73322;DHT22;61549;37.044;22.128;2023-04-01T02:20:19;17.50;54.10
73322;DHT22;61549;37.044;22.128;2023-04-01T02:22:56;17.60;54.00
73322;DHT22;61549;37.044;22.128;2023-04-01T02:25:30;17.50;54.00
73322;DHT22;61549;37.044;22.128;2023-04-01T02:27:59;17.50;54.50
73322;DHT22;61549;37.044;22.128;2023-04-01T02:30:28;17.50;54.50
73322;DHT22;61549;37.044;22.128;2023-04-01T02:32:56;17.50;54.70
73322;DHT22;61549;37.044;22.128;2023-04-01T02:35:22;17.40;54.90
73322;DHT22;61549;37.044;22.128;2023-04-01T02:37:50;17.30;54.90
73322;DHT22;61549;37.044;22.128;2023-04-01T02:40:17;17.30;55.10
73322;DHT22;61549;37.044;22.128;2023-04-01T02:42:43;17.20;55.20
73322;DHT22;61549;37.044;22.128;2023-04-01T02:45:11;17.10;55.20
73322;DHT22;61549;37.044;22.128;2023-04-01T02:47:37;17.00;55.40
73322;DHT22;61549;37.044;22.128;2023-04-01T02:50:03;17.00;55.50
73322;DHT22;61549;37.044;22.128;2023-04-01T02:52:30;17.00;55.70
73322;DHT22;61549;37.044;22.128;2023-04-01T02:54:56;17.00;55.90
73322;DHT22;61549;37.044;22.128;2023-04-01T02:57:23;16.90;56.10
73322;DHT22;61549;37.044;22.128;2023-04-01T02:59:49;16.90;56.10
73322;DHT22;61549;37.044;22.128;2023-04-01T03:02:16;16.90;56.00
73322;DHT22;61549;37.044;22.128;2023-04-01T03:04:42;16.80;55.90
73322;DHT22;61549;37.044;22.128;2023-04-01T03:07:08;16.80;55.90
73322;DHT22;61549;37.044;22.128;2023-04-01T03:09:36;16.80;55.80
73322;DHT22;61549;37.044;22.128;2023-04-01T03:12:02;16.80;55.80
73322;DHT22;61549;37.044;22.128;2023-04-01T03:14:28;16.80;55.70
73322;DHT22;61549;37.044;22.128;2023-04-01T03:16:54;16.80;55.70
73322;DHT22;61549;37.044;22.128;2023-04-01T03:19:20;16.80;55.70
73322;DHT22;61549;37.044;22.128;2023-04-01T03:21:46;16.80;55.60
73322;DHT22;61549;37.044;22.128;2023-04-01T03:24:12;16.80;55.30
73322;DHT22;61549;37.044;22.128;2023-04-01T03:26:46;16.80;55.10
73322;DHT22;61549;37.044;22.128;2023-04-01T03:29:11;16.80;54.40
73322;DHT22;61549;37.044;22.128;2023-04-01T03:31:37;16.80;53.80
73322;DHT22;61549;37.044;22.128;2023-04-01T03:34:03;16.80;53.80
73322;DHT22;61549;37.044;22.128;2023-04-01T03:36:29;16.80;53.50
73322;DHT22;61549;37.044;22.128;2023-04-01T03:38:58;16.90;53.60
73322;DHT22;61549;37.044;22.128;2023-04-01T03:41:24;16.90;53.60
73322;DHT22;61549;37.044;22.128;2023-04-01T03:43:50;17.00;53.40
73322;DHT22;61549;37.044;22.128;2023-04-01T03:46:18;16.90;53.30
73322;DHT22;61549;37.044;22.128;2023-04-01T03:48:44;16.90;53.00
73322;DHT22;61549;37.044;22.128;2023-04-01T03:51:10;16.90;52.80
73322;DHT22;61549;37.044;22.128;2023-04-01T03:53:36;16.90;52.70
73322;DHT22;61549;37.044;22.128;2023-04-01T03:56:08;16.90;52.60
73322;DHT22;61549;37.044;22.128;2023-04-01T03:58:34;16.90;52.50
73322;DHT22;61549;37.044;22.128;2023-04-01T04:01:00;16.80;52.60
73322;DHT22;61549;37.044;22.128;2023-04-01T04:03:26;16.80;52.90
73322;DHT22;61549;37.044;22.128;2023-04-01T04:05:52;16.80;53.00
73322;DHT22;61549;37.044;22.128;2023-04-01T04:08:18;16.80;53.10
73322;DHT22;61549;37.044;22.128;2023-04-01T04:10:44;16.80;53.20
73322;DHT22;61549;37.044;22.128;2023-04-01T04:13:11;16.80;53.10
73322;DHT22;61549;37.044;22.128;2023-04-01T04:15:38;16.80;53.00
73322;DHT22;61549;37.044;22.128;2023-04-01T04:18:04;16.80;52.90
73322;DHT22;61549;37.044;22.128;2023-04-01T04:20:30;16.80;52.70
73322;DHT22;61549;37.044;22.128;2023-04-01T04:22:56;16.80;52.70
73322;DHT22;61549;37.044;22.128;2023-04-01T04:25:22;16.80;52.60
73322;DHT22;61549;37.044;22.128;2023-04-01T04:27:47;16.80;52.70
73322;DHT22;61549;37.044;22.128;2023-04-01T04:30:15;16.80;52.60
73322;DHT22;61549;37.044;22.128;2023-04-01T04:32:40;16.80;52.80
73322;DHT22;61549;37.044;22.128;2023-04-01T04:35:07;16.70;53.30
73322;DHT22;61549;37.044;22.128;2023-04-01T04:37:33;16.70;53.80
73322;DHT22;61549;37.044;22.128;2023-04-01T04:39:59;16.70;54.20
73322;DHT22;61549;37.044;22.128;2023-04-01T04:42:25;16.70;54.50
73322;DHT22;61549;37.044;22.128;2023-04-01T04:44:51;16.60;54.10
73322;DHT22;61549;37.044;22.128;2023-04-01T04:47:17;16.60;54.00
73322;DHT22;61549;37.044;22.128;2023-04-01T04:49:43;16.60;54.10
73322;DHT22;61549;37.044;22.128;2023-04-01T04:52:08;16.70;54.00
73322;DHT22;61549;37.044;22.128;2023-04-01T04:54:35;16.70;53.70
73322;DHT22;61549;37.044;22.128;2023-04-01T04:57:00;16.80;53.60
73322;DHT22;61549;37.044;22.128;2023-04-01T04:59:26;16.80;53.00
73322;DHT22;61549;37.044;22.128;2023-04-01T05:01:52;16.80;52.90
73322;DHT22;61549;37.044;22.128;2023-04-01T05:04:18;16.80;52.30
73322;DHT22;61549;37.044;22.128;2023-04-01T05:06:44;16.70;52.20
73322;DHT22;61549;37.044;22.128;2023-04-01T05:09:10;16.70;52.20
73322;DHT22;61549;37.044;22.128;2023-04-01T05:11:36;16.70;52.20
73322;DHT22;61549;37.044;22.128;2023-04-01T05:14:02;16.70;51.80
73322;DHT22;61549;37.044;22.128;2023-04-01T05:16:27;16.70;51.30
73322;DHT22;61549;37.044;22.128;2023-04-01T05:18:53;16.70;51.10
73322;DHT22;61549;37.044;22.128;2023-04-01T05:21:19;16.70;51.30
73322;DHT22;61549;37.044;22.128;2023-04-01T05:23:45;16.70;51.40
73322;DHT22;61549;37.044;22.128;2023-04-01T05:26:13;16.80;51.60
73322;DHT22;61549;37.044;22.128;2023-04-01T05:28:39;16.90;51.80
73322;DHT22;61549;37.044;22.128;2023-04-01T05:31:06;17.00;52.10
73322;DHT22;61549;37.044;22.128;2023-04-01T05:33:32;17.00;51.80
73322;DHT22;61549;37.044;22.128;2023-04-01T05:36:14;17.10;51.50
73322;DHT22;61549;37.044;22.128;2023-04-01T05:38:41;17.30;51.90
73322;DHT22;61549;37.044;22.128;2023-04-01T05:41:07;17.30;52.10
73322;DHT22;61549;37.044;22.128;2023-04-01T05:43:36;17.30;52.40
73322;DHT22;61549;37.044;22.128;2023-04-01T05:46:02;17.40;52.80
73322;DHT22;61549;37.044;22.128;2023-04-01T05:54:56;17.90;52.90
73322;DHT22;61549;37.044;22.128;2023-04-01T05:57:22;18.00;52.70
73322;DHT22;61549;37.044;22.128;2023-04-01T05:59:49;18.10;52.70
73322;DHT22;61549;37.044;22.128;2023-04-01T06:02:17;18.30;52.30
73322;DHT22;61549;37.044;22.128;2023-04-01T06:05:27;18.50;52.00
73322;DHT22;61549;37.044;22.128;2023-04-01T06:08:14;18.70;52.50
73322;DHT22;61549;37.044;22.128;2023-04-01T06:14:16;19.00;51.70
73322;DHT22;61549;37.044;22.128;2023-04-01T06:25:21;19.40;51.50
73322;DHT22;61549;37.044;22.128;2023-04-01T06:37:11;20.10;50.10
73322;DHT22;61549;37.044;22.128;2023-04-01T06:40:03;20.00;51.50
73322;DHT22;61549;37.044;22.128;2023-04-01T06:54:20;20.20;51.30
73322;DHT22;61549;37.044;22.128;2023-04-01T06:56:53;20.30;51.00
73322;DHT22;61549;37.044;22.128;2023-04-01T06:59:31;20.40;51.80
73322;DHT22;61549;37.044;22.128;2023-04-01T07:02:20;20.40;51.40
73322;DHT22;61549;37.044;22.128;2023-04-01T07:04:51;20.60;50.50
73322;DHT22;61549;37.044;22.128;2023-04-01T07:07:42;20.60;50.70
73322;DHT22;61549;37.044;22.128;2023-04-01T07:10:19;20.60;49.90
73322;DHT22;61549;37.044;22.128;2023-04-01T07:12:46;20.60;49.80
73322;DHT22;61549;37.044;22.128;2023-04-01T07:16:18;20.70;49.70
73322;DHT22;61549;37.044;22.128;2023-04-01T07:18:23;20.80;49.50
73322;DHT22;61549;37.044;22.128;2023-04-01T07:20:54;21.00;49.70
73322;DHT22;61549;37.044;22.128;2023-04-01T07:23:28;21.00;48.70
73322;DHT22;61549;37.044;22.128;2023-04-01T07:26:01;21.10;48.20
73322;DHT22;61549;37.044;22.128;2023-04-01T07:28:32;20.80;48.20
73322;DHT22;61549;37.044;22.128;2023-04-01T07:31:13;20.50;48.20
73322;DHT22;61549;37.044;22.128;2023-04-01T07:34:14;20.40;48.40
73322;DHT22;61549;37.044;22.128;2023-04-01T07:53:01;21.00;48.80
73322;DHT22;61549;37.044;22.128;2023-04-01T07:55:38;21.20;48.40
73322;DHT22;61549;37.044;22.128;2023-04-01T07:58:31;21.20;48.80
73322;DHT22;61549;37.044;22.128;2023-04-01T08:10:23;21.30;48.80
73322;DHT22;61549;37.044;22.128;2023-04-01T08:15:23;21.30;48.70
73322;DHT22;61549;37.044;22.128;2023-04-01T08:21:01;21.10;48.80
73322;DHT22;61549;37.044;22.128;2023-04-01T08:23:30;21.00;49.40
73322;DHT22;61549;37.044;22.128;2023-04-01T08:29:04;21.10;49.30
73322;DHT22;61549;37.044;22.128;2023-04-01T08:34:34;21.10;49.30
73322;DHT22;61549;37.044;22.128;2023-04-01T08:37:05;21.00;49.30
73322;DHT22;61549;37.044;22.128;2023-04-01T08:39:46;20.90;50.60
73322;DHT22;61549;37.044;22.128;2023-04-01T08:45:53;21.10;51.20
73322;DHT22;61549;37.044;22.128;2023-04-01T09:00:09;21.00;50.00
73322;DHT22;61549;37.044;22.128;2023-04-01T09:03:00;21.00;49.70
73322;DHT22;61549;37.044;22.128;2023-04-01T09:11:41;21.10;50.30
73322;DHT22;61549;37.044;22.128;2023-04-01T09:13:44;21.00;50.20
73322;DHT22;61549;37.044;22.128;2023-04-01T09:16:38;21.00;50.80
73322;DHT22;61549;37.044;22.128;2023-04-01T09:19:22;21.20;50.60
73322;DHT22;61549;37.044;22.128;2023-04-01T09:44:34;21.60;49.80
73322;DHT22;61549;37.044;22.128;2023-04-01T10:08:04;22.30;49.40
73322;DHT22;61549;37.044;22.128;2023-04-01T10:14:07;22.10;49.50
73322;DHT22;61549;37.044;22.128;2023-04-01T10:28:31;22.10;49.20
73322;DHT22;61549;37.044;22.128;2023-04-01T10:31:30;22.20;49.40
73322;DHT22;61549;37.044;22.128;2023-04-01T10:34:19;22.40;49.50
73322;DHT22;61549;37.044;22.128;2023-04-01T10:36:55;22.60;48.80
73322;DHT22;61549;37.044;22.128;2023-04-01T10:56:51;22.30;50.30
73322;DHT22;61549;37.044;22.128;2023-04-01T11:20:05;22.80;51.00
73322;DHT22;61549;37.044;22.128;2023-04-01T11:37:33;22.50;52.30
73322;DHT22;61549;37.044;22.128;2023-04-01T11:57:09;22.20;52.30
73322;DHT22;61549;37.044;22.128;2023-04-01T12:04:58;22.10;53.60
73322;DHT22;61549;37.044;22.128;2023-04-01T12:08:00;22.20;53.10
73322;DHT22;61549;37.044;22.128;2023-04-01T12:16:06;22.20;53.20
73322;DHT22;61549;37.044;22.128;2023-04-01T12:21:37;22.30;53.40
73322;DHT22;61549;37.044;22.128;2023-04-01T12:24:29;22.30;53.80
73322;DHT22;61549;37.044;22.128;2023-04-01T12:29:44;22.40;53.70
73322;DHT22;61549;37.044;22.128;2023-04-01T12:40:51;22.00;54.50
73322;DHT22;61549;37.044;22.128;2023-04-01T12:46:23;21.70;55.70
73322;DHT22;61549;37.044;22.128;2023-04-01T13:01:07;21.50;56.20
73322;DHT22;61549;37.044;22.128;2023-04-01T13:04:17;21.50;55.50
73322;DHT22;61549;37.044;22.128;2023-04-01T13:07:06;21.60;54.80
73322;DHT22;61549;37.044;22.128;2023-04-01T13:10:11;21.50;55.70
73322;DHT22;61549;37.044;22.128;2023-04-01T13:18:13;22.40;52.10
73322;DHT22;61549;37.044;22.128;2023-04-01T13:21:11;22.70;51.60
73322;DHT22;61549;37.044;22.128;2023-04-01T13:30:23;22.40;53.70
73322;DHT22;61549;37.044;22.128;2023-04-01T13:33:25;22.40;53.40
73322;DHT22;61549;37.044;22.128;2023-04-01T13:36:05;22.50;52.40
73322;DHT22;61549;37.044;22.128;2023-04-01T13:44:17;22.70;52.00
73322;DHT22;61549;37.044;22.128;2023-04-01T13:47:04;23.00;52.10
73322;DHT22;61549;37.044;22.128;2023-04-01T14:03:24;23.40;48.70
73322;DHT22;61549;37.044;22.128;2023-04-01T14:06:13;23.40;47.90
73322;DHT22;61549;37.044;22.128;2023-04-01T14:15:19;23.60;47.30
73322;DHT22;61549;37.044;22.128;2023-04-01T14:23:33;23.30;48.70
73322;DHT22;61549;37.044;22.128;2023-04-01T14:51:16;23.90;47.20
73322;DHT22;61549;37.044;22.128;2023-04-01T14:56:37;23.90;47.30
73322;DHT22;61549;37.044;22.128;2023-04-01T14:59:14;23.90;47.30
73322;DHT22;61549;37.044;22.128;2023-04-01T15:04:57;24.00;47.60
73322;DHT22;61549;37.044;22.128;2023-04-01T15:08:00;24.00;47.90
73322;DHT22;61549;37.044;22.128;2023-04-01T15:10:49;24.00;47.40
73322;DHT22;61549;37.044;22.128;2023-04-01T15:16:22;24.00;46.90
73322;DHT22;61549;37.044;22.128;2023-04-01T15:27:12;23.70;47.50
73322;DHT22;61549;37.044;22.128;2023-04-01T15:32:44;23.50;47.10
73322;DHT22;61549;37.044;22.128;2023-04-01T15:43:42;22.40;50.50
73322;DHT22;61549;37.044;22.128;2023-04-01T15:46:30;22.20;51.20
73322;DHT22;61549;37.044;22.128;2023-04-01T15:52:02;22.30;51.20
73322;DHT22;61549;37.044;22.128;2023-04-01T15:54:54;22.20;51.80
73322;DHT22;61549;37.044;22.128;2023-04-01T16:00:28;22.10;52.60
73322;DHT22;61549;37.044;22.128;2023-04-01T16:03:16;22.10;53.10
73322;DHT22;61549;37.044;22.128;2023-04-01T16:25:41;21.90;56.00
73322;DHT22;61549;37.044;22.128;2023-04-01T16:34:08;21.50;56.60
73322;DHT22;61549;37.044;22.128;2023-04-01T16:39:22;21.60;55.00
73322;DHT22;61549;37.044;22.128;2023-04-01T16:45:00;21.50;55.30
73322;DHT22;61549;37.044;22.128;2023-04-01T16:55:55;21.50;55.30
73322;DHT22;61549;37.044;22.128;2023-04-01T16:58:42;21.60;55.10
73322;DHT22;61549;37.044;22.128;2023-04-01T17:01:21;21.60;55.10
73322;DHT22;61549;37.044;22.128;2023-04-01T17:03:53;21.60;55.10
73322;DHT22;61549;37.044;22.128;2023-04-01T17:12:35;21.30;56.50
73322;DHT22;61549;37.044;22.128;2023-04-01T17:18:03;21.20;56.90
73322;DHT22;61549;37.044;22.128;2023-04-01T17:21:01;21.20;57.10
73322;DHT22;61549;37.044;22.128;2023-04-01T17:31:43;21.00;57.50
73322;DHT22;61549;37.044;22.128;2023-04-01T17:34:46;21.00;57.60
73322;DHT22;61549;37.044;22.128;2023-04-01T17:37:45;21.00;57.40
73322;DHT22;61549;37.044;22.128;2023-04-01T17:40:37;20.80;57.50
73322;DHT22;61549;37.044;22.128;2023-04-01T17:45:55;20.80;58.10
73322;DHT22;61549;37.044;22.128;2023-04-01T17:53:49;20.70;58.10
73322;DHT22;61549;37.044;22.128;2023-04-01T17:59:38;20.60;58.00
73322;DHT22;61549;37.044;22.128;2023-04-01T18:10:40;20.40;58.30
73322;DHT22;61549;37.044;22.128;2023-04-01T18:25:15;20.30;58.20
73322;DHT22;61549;37.044;22.128;2023-04-01T18:27:47;20.20;58.30
73322;DHT22;61549;37.044;22.128;2023-04-01T18:39:08;20.00;58.70
73322;DHT22;61549;37.044;22.128;2023-04-01T18:42:08;20.00;58.80
73322;DHT22;61549;37.044;22.128;2023-04-01T18:44:50;20.00;58.60
73322;DHT22;61549;37.044;22.128;2023-04-01T18:47:55;20.00;58.80
73322;DHT22;61549;37.044;22.128;2023-04-01T18:50:27;20.00;58.80
73322;DHT22;61549;37.044;22.128;2023-04-01T18:56:01;19.90;59.10
73322;DHT22;61549;37.044;22.128;2023-04-01T18:58:52;19.90;59.10
73322;DHT22;61549;37.044;22.128;2023-04-01T19:01:28;19.90;59.00
73322;DHT22;61549;37.044;22.128;2023-04-01T19:06:50;19.80;59.00
73322;DHT22;61549;37.044;22.128;2023-04-01T19:09:24;19.80;59.00
73322;DHT22;61549;37.044;22.128;2023-04-01T19:12:03;19.80;59.00
73322;DHT22;61549;37.044;22.128;2023-04-01T19:20:45;19.70;59.30
73322;DHT22;61549;37.044;22.128;2023-04-01T19:23:46;19.70;59.20
73322;DHT22;61549;37.044;22.128;2023-04-01T19:26:42;19.70;59.30
73322;DHT22;61549;37.044;22.128;2023-04-01T19:29:32;19.70;59.70
73322;DHT22;61549;37.044;22.128;2023-04-01T19:46:10;19.70;59.10
73322;DHT22;61549;37.044;22.128;2023-04-01T19:51:40;19.70;59.20
73322;DHT22;61549;37.044;22.128;2023-04-01T20:04:48;19.60;59.10
73322;DHT22;61549;37.044;22.128;2023-04-01T20:07:32;19.60;59.20
73322;DHT22;61549;37.044;22.128;2023-04-01T20:15:43;19.50;59.50
73322;DHT22;61549;37.044;22.128;2023-04-01T20:18:23;19.50;59.00
73322;DHT22;61549;37.044;22.128;2023-04-01T20:20:57;19.50;58.90
73322;DHT22;61549;37.044;22.128;2023-04-01T20:26:12;19.40;59.30
73322;DHT22;61549;37.044;22.128;2023-04-01T20:28:44;19.30;59.30
73322;DHT22;61549;37.044;22.128;2023-04-01T20:32:11;19.30;59.20
73322;DHT22;61549;37.044;22.128;2023-04-01T20:34:42;19.40;58.80
73322;DHT22;61549;37.044;22.128;2023-04-01T20:40:30;19.30;58.70
73322;DHT22;61549;37.044;22.128;2023-04-01T20:51:21;19.20;58.40
73322;DHT22;61549;37.044;22.128;2023-04-01T21:07:57;18.90;58.50
73322;DHT22;61549;37.044;22.128;2023-04-01T21:10:43;18.90;58.50
73322;DHT22;61549;37.044;22.128;2023-04-01T21:13:30;18.80;58.40
73322;DHT22;61549;37.044;22.128;2023-04-01T21:16:14;18.60;58.90
73322;DHT22;61549;37.044;22.128;2023-04-01T21:21:46;18.40;59.50
73322;DHT22;61549;37.044;22.128;2023-04-01T21:27:36;18.30;59.50
73322;DHT22;61549;37.044;22.128;2023-04-01T21:41:44;18.30;59.50
73322;DHT22;61549;37.044;22.128;2023-04-01T22:01:20;18.30;59.50
73322;DHT22;61549;37.044;22.128;2023-04-01T22:11:46;18.30;59.50
73322;DHT22;61549;37.044;22.128;2023-04-01T22:14:39;18.40;59.50
73322;DHT22;61549;37.044;22.128;2023-04-01T22:31:11;18.40;59.20
73322;DHT22;61549;37.044;22.128;2023-04-01T22:40:19;18.30;59.30
73322;DHT22;61549;37.044;22.128;2023-04-01T22:43:15;18.30;59.10
73322;DHT22;61549;37.044;22.128;2023-04-01T22:55:59;18.30;58.50
73322;DHT22;61549;37.044;22.128;2023-04-01T22:58:36;18.20;58.60
73322;DHT22;61549;37.044;22.128;2023-04-01T23:01:12;18.30;58.60
73322;DHT22;61549;37.044;22.128;2023-04-01T23:03:41;18.20;58.40
73322;DHT22;61549;37.044;22.128;2023-04-01T23:06:21;18.20;58.40
73322;DHT22;61549;37.044;22.128;2023-04-01T23:09:14;18.20;58.40
73322;DHT22;61549;37.044;22.128;2023-04-01T23:11:55;18.20;58.30
73322;DHT22;61549;37.044;22.128;2023-04-01T23:20:17;18.10;58.00
73322;DHT22;61549;37.044;22.128;2023-04-01T23:25:37;18.10;58.00
73322;DHT22;61549;37.044;22.128;2023-04-01T23:31:39;18.10;58.20
73322;DHT22;61549;37.044;22.128;2023-04-01T23:41:41;18.10;58.20
73322;DHT22;61549;37.044;22.128;2023-04-01T23:44:12;18.00;58.40
73322;DHT22;61549;37.044;22.128;2023-04-01T23:46:47;18.10;58.50
73322;DHT22;61549;37.044;22.128;2023-04-01T23:49:18;18.10;58.50
73322;DHT22;61549;37.044;22.128;2023-04-01T23:51:53;18.10;58.50
73322;DHT22;61549;37.044;22.128;2023-04-01T23:54:33;18.10;58.50
73322;DHT22;61549;37.044;22.128;2023-04-01T23:57:05;18.10;58.60
73322;DHT22;61549;37.044;22.128;2023-04-01T23:59:38;18.10;58.50
